Terminal Aerodrome Forecast
Issued by NWS Sterling, VA

Current Version | Previous Version | Graphics & Text | Print | Product List | Glossary On
Versions: 1 2 3 4 5 6 7 8 9 10 11 12 13 14 15 16 17 18 19 20 21
643
FTUS41 KLWX 212320
TAFIAD
TAF
KIAD 212320Z 2200/2306 30008KT P6SM SCT040 SCT060 BKN160
     FM220200 31010KT P6SM SCT150
     FM221400 34010G18KT P6SM SCT250
     FM230200 00000KT P6SM FEW250=

USA.gov is the U.S. government's official web portal to all federal, state and local government web resources and services.